createdAt,value
2022-12-20T00:01:56.904Z,12.55
2022-12-20T00:04:25.504Z,12.20
2022-12-20T00:06:55.690Z,11.65
2022-12-20T00:09:25.511Z,10.98
2022-12-20T00:11:53.924Z,10.68
2022-12-20T00:14:22.345Z,11.40
2022-12-20T00:30:19.623Z,9.63
2022-12-20T00:32:48.416Z,10.57
2022-12-20T00:35:16.730Z,10.55
2022-12-20T00:37:45.493Z,9.50
2022-12-20T00:40:14.242Z,11.13
2022-12-20T00:42:42.670Z,10.57
2022-12-20T00:45:12.900Z,9.70
2022-12-20T00:47:42.637Z,9.23
2022-12-20T00:50:11.886Z,9.23
2022-12-20T00:52:41.029Z,9.68
2022-12-20T00:55:10.378Z,9.32
2022-12-20T00:57:38.600Z,7.82
2022-12-20T01:00:08.263Z,9.35
2022-12-20T01:02:37.093Z,8.70
2022-12-20T01:05:07.791Z,9.40
2022-12-20T01:07:36.207Z,8.05
2022-12-20T01:10:04.999Z,8.75
2022-12-20T01:12:33.384Z,8.82
2022-12-20T01:15:01.954Z,9.57
2022-12-20T01:17:30.481Z,8.85
2022-12-20T01:19:58.884Z,9.13
2022-12-20T01:22:28.633Z,8.98
2022-12-20T01:24:56.845Z,9.20
2022-12-20T01:27:25.082Z,8.15
2022-12-20T01:29:53.963Z,9.05
2022-12-20T01:32:23.206Z,8.70
2022-12-20T01:34:51.642Z,9.40
2022-12-20T01:37:19.958Z,9.77
2022-12-20T01:39:49.721Z,9.63
2022-12-20T01:42:18.153Z,8.95
2022-12-20T01:44:57.742Z,9.27
2022-12-20T01:47:28.338Z,9.13
2022-12-20T01:49:58.783Z,9.70
2022-12-20T01:52:32.625Z,10.32
2022-12-20T01:55:09.969Z,8.57
2022-12-20T01:57:42.732Z,9.20
2022-12-20T02:00:12.257Z,9.02
2022-12-20T02:02:45.033Z,8.68
2022-12-20T02:05:14.829Z,9.63
2022-12-20T02:07:49.805Z,10.15
2022-12-20T02:10:22.306Z,9.15
2022-12-20T02:13:00.202Z,9.88
2022-12-20T02:15:47.253Z,10.02
2022-12-20T02:18:23.614Z,9.48
2022-12-20T02:21:15.299Z,9.25
2022-12-20T02:24:02.307Z,9.57
2022-12-20T02:27:05.256Z,9.63
2022-12-20T02:29:38.127Z,9.82
2022-12-20T02:32:14.134Z,9.98
2022-12-20T02:34:43.793Z,9.50
2022-12-20T02:37:12.590Z,9.93
2022-12-20T02:39:43.658Z,10.45
2022-12-20T02:42:15.307Z,9.95
2022-12-20T02:45:05.977Z,10.32
2022-12-20T02:47:41.139Z,9.27
2022-12-20T02:50:11.433Z,9.73
2022-12-20T02:52:42.627Z,9.07
2022-12-20T02:55:11.873Z,10.35
2022-12-20T02:57:47.500Z,9.32
2022-12-20T03:00:18.637Z,9.35
2022-12-20T03:03:06.948Z,9.15
2022-12-20T03:05:39.762Z,10.07
2022-12-20T03:08:08.927Z,9.23
2022-12-20T03:10:37.439Z,10.98
2022-12-20T03:13:06.036Z,9.60
2022-12-20T03:15:36.555Z,9.65
2022-12-20T03:18:07.444Z,9.35
2022-12-20T03:20:35.811Z,9.32
2022-12-20T03:23:04.479Z,9.18
2022-12-20T03:25:33.623Z,9.50
2022-12-20T03:28:03.503Z,8.15
2022-12-20T03:30:32.955Z,8.90
2022-12-20T03:33:01.212Z,9.48
2022-12-20T03:35:30.919Z,10.25
2022-12-20T03:37:59.734Z,9.90
2022-12-20T03:40:28.949Z,8.13
2022-12-20T03:42:58.071Z,8.98
2022-12-20T03:45:26.773Z,8.82
2022-12-20T03:47:55.864Z,9.05
2022-12-20T03:50:26.503Z,9.57
2022-12-20T03:52:56.474Z,8.30
2022-12-20T03:55:24.826Z,8.93
2022-12-20T03:57:53.186Z,9.07
2022-12-20T04:00:32.597Z,9.07
2022-12-20T04:03:20.962Z,9.98
2022-12-20T04:05:49.428Z,9.20
2022-12-20T04:08:19.185Z,9.45
2022-12-20T04:11:11.907Z,9.25
2022-12-20T04:13:43.501Z,9.23
2022-12-20T04:16:12.980Z,9.15
2022-12-20T04:18:41.367Z,9.20
2022-12-20T04:21:10.976Z,9.88
2022-12-20T04:23:45.316Z,9.75
2022-12-20T04:26:14.630Z,10.90
2022-12-20T04:28:43.399Z,10.23
2022-12-20T04:31:16.098Z,9.68
2022-12-20T04:33:47.374Z,9.82
2022-12-20T04:36:16.414Z,13.35
2022-12-20T04:38:46.756Z,11.02
2022-12-20T04:41:22.782Z,11.68
2022-12-20T04:43:58.552Z,12.00
2022-12-20T04:46:35.801Z,14.07
2022-12-20T04:49:05.524Z,12.95
2022-12-20T04:51:37.679Z,12.27
2022-12-20T04:54:09.529Z,10.35
2022-12-20T04:56:44.566Z,10.18
2022-12-20T04:59:18.614Z,9.30
2022-12-20T05:01:50.979Z,10.50
2022-12-20T05:04:37.779Z,10.30
2022-12-20T05:07:07.123Z,9.55
2022-12-20T05:09:39.486Z,9.40
2022-12-20T05:12:08.583Z,8.60
2022-12-20T05:14:36.989Z,8.82
2022-12-20T05:17:05.619Z,9.25
2022-12-20T05:19:34.273Z,8.60
2022-12-20T05:22:20.980Z,9.25
2022-12-20T05:25:24.083Z,8.35
2022-12-20T05:27:56.587Z,8.35
2022-12-20T05:30:27.948Z,8.45
2022-12-20T05:32:56.898Z,8.18
2022-12-20T05:35:26.032Z,9.20
2022-12-20T05:38:01.397Z,8.93
2022-12-20T05:40:31.253Z,8.52
2022-12-20T05:43:00.856Z,8.07
2022-12-20T05:45:48.448Z,8.05
2022-12-20T05:48:21.050Z,8.45
2022-12-20T05:50:50.215Z,8.75
2022-12-20T05:53:28.214Z,8.75
2022-12-20T05:56:02.582Z,8.57
2022-12-20T05:58:34.248Z,8.55
2022-12-20T06:01:07.290Z,8.50
2022-12-20T06:03:41.588Z,8.02
2022-12-20T06:06:15.552Z,8.82
2022-12-20T06:08:47.771Z,8.60
2022-12-20T06:11:29.670Z,9.65
2022-12-20T06:14:05.946Z,8.40
2022-12-20T06:16:37.019Z,8.68
2022-12-20T06:19:06.950Z,9.32
2022-12-20T06:21:36.847Z,8.30
2022-12-20T06:24:08.481Z,9.38
2022-12-20T06:26:57.435Z,8.38
2022-12-20T06:29:27.719Z,8.88
2022-12-20T06:32:05.476Z,8.60
2022-12-20T06:34:34.228Z,8.88
2022-12-20T06:37:03.584Z,8.82
2022-12-20T06:39:35.163Z,8.75
2022-12-20T06:42:07.193Z,9.52
2022-12-20T06:44:37.269Z,8.38
2022-12-20T06:47:06.698Z,8.38
2022-12-20T06:49:34.995Z,9.20
2022-12-20T06:52:08.442Z,9.27
2022-12-20T06:54:47.200Z,9.48
2022-12-20T06:57:17.352Z,9.50
2022-12-20T06:59:48.771Z,9.45
2022-12-20T07:02:18.099Z,8.70
2022-12-20T07:04:46.588Z,9.45
2022-12-20T07:07:15.354Z,8.98
2022-12-20T07:09:43.933Z,8.77
2022-12-20T07:12:13.392Z,9.25
2022-12-20T07:14:43.180Z,8.27
2022-12-20T07:17:12.695Z,8.45
2022-12-20T07:19:45.590Z,8.95
2022-12-20T07:22:17.275Z,8.75
2022-12-20T07:24:45.715Z,8.30
2022-12-20T07:27:14.117Z,9.27
2022-12-20T07:29:45.645Z,10.60
2022-12-20T07:32:14.716Z,9.52
2022-12-20T07:34:44.064Z,9.35
2022-12-20T07:37:12.538Z,9.25
2022-12-20T07:39:42.430Z,8.23
2022-12-20T07:42:12.732Z,8.82
2022-12-20T07:44:45.872Z,10.65
2022-12-20T07:47:14.233Z,10.05
2022-12-20T07:49:45.624Z,9.07
2022-12-20T07:54:47.117Z,9.35
2022-12-20T07:59:51.870Z,9.70
2022-12-20T08:02:27.146Z,9.10
2022-12-20T08:04:57.361Z,9.90
2022-12-20T08:07:26.252Z,9.60
2022-12-20T08:09:54.589Z,9.57
2022-12-20T08:12:24.207Z,10.25
2022-12-20T08:14:56.591Z,11.27
2022-12-20T08:17:25.139Z,10.85
2022-12-20T08:19:53.575Z,10.38
2022-12-20T08:22:23.266Z,11.15
2022-12-20T08:24:51.671Z,11.10
2022-12-20T08:27:20.217Z,11.80
2022-12-20T08:29:49.043Z,11.23
2022-12-20T08:32:18.992Z,10.15
2022-12-20T08:34:49.061Z,11.05
2022-12-20T08:37:18.869Z,12.02
2022-12-20T08:39:47.322Z,11.95
2022-12-20T08:42:16.171Z,12.23
2022-12-20T08:44:45.515Z,11.57
2022-12-20T08:47:14.031Z,11.63
2022-12-20T08:49:47.827Z,11.65
2022-12-20T08:52:16.785Z,12.45
2022-12-20T08:54:45.353Z,11.55
2022-12-20T08:57:14.116Z,12.43
2022-12-20T08:59:42.635Z,13.43
2022-12-20T09:02:11.234Z,13.00
2022-12-20T09:04:39.808Z,12.90
2022-12-20T09:07:09.849Z,12.00
2022-12-20T09:09:39.014Z,13.77
2022-12-20T09:12:07.940Z,12.57
2022-12-20T09:14:36.508Z,12.82
2022-12-20T09:17:04.871Z,12.40
2022-12-20T09:19:34.222Z,11.32
2022-12-20T09:22:02.679Z,11.75
2022-12-20T09:24:32.819Z,12.00
2022-12-20T09:27:01.212Z,12.10
2022-12-20T09:29:35.304Z,11.63
2022-12-20T09:32:04.210Z,11.57
2022-12-20T09:34:32.606Z,10.93
2022-12-20T09:37:01.051Z,12.02
2022-12-20T09:39:29.685Z,11.45
2022-12-20T09:42:00.502Z,10.23
2022-12-20T09:44:33.158Z,11.02
2022-12-20T09:47:10.805Z,11.20
2022-12-20T09:49:42.980Z,10.82
2022-12-20T09:52:36.230Z,9.32
2022-12-20T09:55:16.578Z,9.68
2022-12-20T09:58:02.662Z,10.23
2022-12-20T10:00:37.266Z,9.65
2022-12-20T10:03:10.405Z,10.20
2022-12-20T10:05:48.286Z,9.73
2022-12-20T10:08:26.590Z,9.55
2022-12-20T10:10:57.492Z,9.52
2022-12-20T10:13:44.544Z,9.77
2022-12-20T10:16:35.015Z,9.05
2022-12-20T10:19:16.201Z,9.02
2022-12-20T10:21:57.395Z,9.85
2022-12-20T10:24:31.733Z,9.30
2022-12-20T10:27:12.444Z,9.75
2022-12-20T10:29:42.881Z,11.25
2022-12-20T10:32:15.187Z,9.32
2022-12-20T10:34:48.955Z,9.73
2022-12-20T10:37:17.578Z,9.10
2022-12-20T10:39:49.833Z,8.90
2022-12-20T10:42:37.634Z,8.48
2022-12-20T10:45:36.419Z,9.05
2022-12-20T10:48:08.098Z,9.90
2022-12-20T10:50:36.642Z,8.10
2022-12-20T10:53:29.854Z,9.73
2022-12-20T10:56:18.873Z,8.70
2022-12-20T10:58:55.030Z,9.13
2022-12-20T11:01:31.515Z,8.77
2022-12-20T11:04:02.979Z,9.10
2022-12-20T11:06:43.395Z,8.65
2022-12-20T11:09:28.994Z,9.07
2022-12-20T11:12:07.420Z,8.95
2022-12-20T11:14:39.696Z,9.20
2022-12-20T11:17:26.261Z,8.95
2022-12-20T11:20:13.755Z,9.38
2022-12-20T11:22:54.110Z,9.13
2022-12-20T11:25:37.665Z,8.30
2022-12-20T11:28:29.887Z,9.30
2022-12-20T11:31:07.296Z,9.13
2022-12-20T11:33:52.166Z,9.60
2022-12-20T11:36:34.466Z,9.35
2022-12-20T11:39:14.341Z,8.98
2022-12-20T11:41:51.829Z,8.70
2022-12-20T11:44:30.073Z,8.63
2022-12-20T11:47:14.449Z,9.18
2022-12-20T11:49:54.503Z,9.63
2022-12-20T11:52:36.156Z,9.55
2022-12-20T11:55:18.066Z,8.82
2022-12-20T11:58:17.425Z,9.75
2022-12-20T12:00:51.394Z,8.70
2022-12-20T12:03:26.972Z,10.45
2022-12-20T12:06:01.423Z,9.43
2022-12-20T12:08:39.849Z,10.23
2022-12-20T12:11:40.330Z,9.43
2022-12-20T12:14:07.265Z,9.75
2022-12-20T12:16:40.779Z,9.95
2022-12-20T12:19:12.790Z,9.05
2022-12-20T12:21:47.304Z,8.77
2022-12-20T12:24:25.143Z,9.52
2022-12-20T12:26:54.061Z,8.90
2022-12-20T12:29:23.672Z,9.23
2022-12-20T12:31:58.599Z,9.48
2022-12-20T12:34:42.083Z,9.48
2022-12-20T12:37:37.300Z,8.23
2022-12-20T12:40:29.088Z,8.73
2022-12-20T12:43:23.382Z,9.63
2022-12-20T12:45:56.373Z,10.23
2022-12-20T12:48:30.756Z,9.70
2022-12-20T12:51:02.727Z,9.25
2022-12-20T12:53:37.651Z,9.80
2022-12-20T12:56:44.555Z,10.15
2022-12-20T12:59:39.811Z,11.02
2022-12-20T13:02:29.336Z,9.40
2022-12-20T13:05:01.498Z,10.75
2022-12-20T13:07:44.696Z,9.55
2022-12-20T13:10:50.594Z,10.00
2022-12-20T13:13:25.259Z,9.82
2022-12-20T13:16:11.033Z,10.10
2022-12-20T13:18:39.840Z,10.32
2022-12-20T13:21:43.256Z,9.88
2022-12-20T13:24:42.558Z,9.85
2022-12-20T13:27:27.302Z,10.27
2022-12-20T13:30:22.518Z,11.23
2022-12-20T13:33:13.676Z,11.30
2022-12-20T13:35:57.605Z,11.68
2022-12-20T13:38:57.360Z,11.15
2022-12-20T13:41:38.858Z,10.38
2022-12-20T13:44:41.596Z,10.30
2022-12-20T13:47:31.540Z,10.55
2022-12-20T13:50:03.131Z,10.30
2022-12-20T13:55:03.281Z,11.40
2022-12-20T13:57:34.603Z,12.32
2022-12-20T14:00:07.942Z,9.82
2022-12-20T14:02:44.308Z,11.05
2022-12-20T14:05:20.982Z,11.23
2022-12-20T14:07:56.482Z,10.43
2022-12-20T14:10:29.394Z,10.73
2022-12-20T14:12:58.710Z,10.95
2022-12-20T14:15:31.198Z,11.35
2022-12-20T14:18:07.322Z,10.98
2022-12-20T14:20:38.270Z,10.93
2022-12-20T14:23:12.392Z,11.77
2022-12-20T14:25:45.294Z,12.65
2022-12-20T14:28:31.721Z,13.25
2022-12-20T14:31:03.648Z,12.00
2022-12-20T14:33:37.203Z,11.07
2022-12-20T14:36:20.323Z,11.73
2022-12-20T14:38:50.049Z,12.55
2022-12-20T14:41:35.230Z,11.05
2022-12-20T14:44:18.015Z,11.27
2022-12-20T14:46:51.650Z,12.15
2022-12-20T14:49:24.976Z,11.95
2022-12-20T14:52:05.315Z,11.25
2022-12-20T14:55:07.342Z,13.05
2022-12-20T14:57:25.589Z,12.98
2022-12-20T15:00:03.511Z,13.98
2022-12-20T15:02:40.722Z,12.60
2022-12-20T15:05:54.089Z,13.65
2022-12-20T15:08:28.710Z,12.63
2022-12-20T15:11:01.308Z,13.70
2022-12-20T15:13:33.309Z,13.02
2022-12-20T15:16:04.873Z,14.25
2022-12-20T15:18:34.457Z,13.77
2022-12-20T15:21:06.946Z,13.55
2022-12-20T15:23:36.986Z,12.80
2022-12-20T15:26:05.952Z,12.70
2022-12-20T15:28:35.111Z,16.38
2022-12-20T15:31:04.885Z,17.13
2022-12-20T15:33:35.855Z,15.77
2022-12-20T15:36:04.381Z,16.17
2022-12-20T15:39:11.251Z,18.20
2022-12-20T15:41:24.849Z,16.45
2022-12-20T15:43:56.967Z,15.35
2022-12-20T15:46:25.871Z,16.75
2022-12-20T15:48:55.101Z,14.88
2022-12-20T15:51:29.052Z,14.80
2022-12-20T15:53:58.043Z,14.57
2022-12-20T15:56:29.781Z,14.98
2022-12-20T15:58:58.793Z,17.23
2022-12-20T16:01:36.234Z,18.67
2022-12-20T16:04:09.515Z,24.30
2022-12-20T16:06:38.106Z,27.10
2022-12-20T16:09:07.400Z,28.05
2022-12-20T16:11:37.454Z,31.45
2022-12-20T16:14:06.213Z,25.27
2022-12-20T16:16:39.690Z,21.67
2022-12-20T16:19:08.517Z,22.02
2022-12-20T16:21:41.861Z,20.42
2022-12-20T16:24:13.878Z,20.00
2022-12-20T16:26:44.513Z,20.90
2022-12-20T16:29:13.064Z,18.70
2022-12-20T16:31:43.433Z,19.42
2022-12-20T16:34:14.947Z,18.88
2022-12-20T16:36:44.220Z,18.38
2022-12-20T16:39:12.915Z,19.92
2022-12-20T16:41:44.934Z,19.20
2022-12-20T16:44:15.780Z,19.35
2022-12-20T16:46:45.567Z,18.80
2022-12-20T16:49:20.005Z,19.75
2022-12-20T16:51:50.999Z,20.92
2022-12-20T16:54:21.754Z,20.45
2022-12-20T16:56:55.679Z,22.33
2022-12-20T16:59:24.571Z,23.10
2022-12-20T17:01:54.319Z,24.30
2022-12-20T17:04:24.031Z,23.27
2022-12-20T17:06:52.553Z,21.77
2022-12-20T17:12:15.160Z,22.50
2022-12-20T17:14:44.864Z,22.48
2022-12-20T17:17:13.635Z,22.60
2022-12-20T17:19:42.446Z,22.55
2022-12-20T17:24:58.347Z,21.48
2022-12-20T17:27:28.123Z,21.13
2022-12-20T17:29:56.350Z,20.75
2022-12-20T17:32:26.279Z,19.73
2022-12-20T17:34:55.471Z,21.08
2022-12-20T17:37:24.749Z,20.30
2022-12-20T17:39:53.309Z,19.83
2022-12-20T17:42:27.069Z,19.90
2022-12-20T17:45:01.101Z,18.77
2022-12-20T17:47:29.390Z,21.00
2022-12-20T17:49:58.327Z,22.55
2022-12-20T17:52:26.663Z,19.85
2022-12-20T17:54:55.208Z,20.83
2022-12-20T17:57:23.623Z,19.70
2022-12-20T17:59:52.100Z,19.73
2022-12-20T18:02:24.032Z,19.05
2022-12-20T18:04:52.876Z,20.65
2022-12-20T18:07:21.536Z,20.95
2022-12-20T18:09:51.227Z,19.98
2022-12-20T18:12:19.976Z,20.48
2022-12-20T18:14:49.934Z,21.40
2022-12-20T18:17:18.316Z,21.02
2022-12-20T18:19:48.159Z,23.75
2022-12-20T18:22:16.621Z,25.10
2022-12-20T18:24:44.910Z,29.33
2022-12-20T18:27:13.828Z,29.45
2022-12-20T18:29:42.514Z,32.47
2022-12-20T18:32:11.061Z,30.20
2022-12-20T18:34:39.491Z,29.88
2022-12-20T18:37:09.322Z,27.05
2022-12-20T18:39:37.853Z,27.15
2022-12-20T18:42:06.839Z,25.63
2022-12-20T18:44:36.431Z,24.60
2022-12-20T18:47:04.986Z,24.08
2022-12-20T18:49:33.500Z,26.10
2022-12-20T18:52:01.825Z,27.15
2022-12-20T18:54:32.352Z,27.70
2022-12-20T18:57:01.005Z,29.27
2022-12-20T18:59:29.411Z,24.33
2022-12-20T19:01:58.359Z,23.10
2022-12-20T19:04:27.046Z,20.85
2022-12-20T19:06:55.758Z,19.75
2022-12-20T19:09:24.495Z,21.80
2022-12-20T19:11:57.360Z,18.35
2022-12-20T19:14:26.645Z,18.95
2022-12-20T19:16:55.658Z,17.48
2022-12-20T19:19:24.214Z,20.58
2022-12-20T19:21:53.455Z,18.38
2022-12-20T19:24:22.082Z,18.02
2022-12-20T19:26:50.466Z,19.10
2022-12-20T19:29:20.725Z,19.60
2022-12-20T19:31:49.165Z,18.73
2022-12-20T19:34:17.617Z,19.83
2022-12-20T19:36:48.454Z,20.08
2022-12-20T19:39:20.171Z,19.77
2022-12-20T19:44:38.421Z,19.83
2022-12-20T19:47:07.357Z,20.48
2022-12-20T19:49:36.960Z,21.10
2022-12-20T19:52:05.908Z,21.52
2022-12-20T19:54:35.295Z,21.33
2022-12-20T19:57:03.857Z,21.55
2022-12-20T19:59:33.199Z,21.38
2022-12-20T20:02:03.125Z,20.38
2022-12-20T20:04:32.240Z,21.00
2022-12-20T20:07:01.264Z,21.73
2022-12-20T20:09:30.336Z,20.67
2022-12-20T20:11:58.802Z,21.63
2022-12-20T20:14:27.335Z,21.70
2022-12-20T20:16:55.875Z,22.48
2022-12-20T20:19:26.385Z,21.20
2022-12-20T20:21:55.023Z,22.75
2022-12-20T20:24:23.596Z,22.63
2022-12-20T20:26:52.092Z,22.10
2022-12-20T20:29:22.263Z,22.85
2022-12-20T20:31:51.672Z,20.25
2022-12-20T20:34:21.741Z,20.88
2022-12-20T20:36:51.912Z,21.25
2022-12-20T20:39:20.565Z,21.50
2022-12-20T20:41:49.308Z,20.83
2022-12-20T20:44:17.959Z,20.42
2022-12-20T20:46:47.220Z,18.20
2022-12-20T20:49:15.653Z,32.17
2022-12-20T20:51:43.849Z,22.25
2022-12-20T20:54:13.701Z,20.38
2022-12-20T20:56:43.171Z,19.05
2022-12-20T20:59:17.313Z,19.05
2022-12-20T21:01:47.194Z,18.15
2022-12-20T21:04:16.042Z,18.55
2022-12-20T21:06:46.163Z,21.13
2022-12-20T21:09:16.680Z,38.22
2022-12-20T21:11:45.338Z,28.30
2022-12-20T21:14:14.639Z,26.10
2022-12-20T21:16:43.417Z,21.58
2022-12-20T21:19:12.422Z,21.13
2022-12-20T21:21:41.140Z,21.02
2022-12-20T21:24:09.660Z,18.58
2022-12-20T21:26:39.666Z,21.35
2022-12-20T21:29:08.380Z,20.38
2022-12-20T21:31:37.466Z,20.40
2022-12-20T21:34:06.010Z,19.38
2022-12-20T21:36:34.675Z,18.00
2022-12-20T21:39:03.673Z,17.55
2022-12-20T21:41:33.032Z,18.85
2022-12-20T21:44:03.097Z,18.50
2022-12-20T21:46:33.152Z,17.50
2022-12-20T21:49:01.699Z,16.75
2022-12-20T21:51:31.659Z,17.52
2022-12-20T21:54:01.447Z,19.27
2022-12-20T21:56:31.605Z,24.92
2022-12-20T21:59:00.191Z,27.27
2022-12-20T22:01:31.334Z,25.42
2022-12-20T22:04:02.463Z,22.88
2022-12-20T22:06:31.689Z,24.27
2022-12-20T22:09:00.643Z,22.67
2022-12-20T22:11:29.617Z,22.13
2022-12-20T22:13:59.797Z,23.20
2022-12-20T22:16:32.024Z,23.17
2022-12-20T22:19:01.611Z,22.50
2022-12-20T22:21:32.472Z,23.40
2022-12-20T22:24:02.137Z,22.98
2022-12-20T22:26:33.877Z,23.00
2022-12-20T22:29:05.718Z,21.63
2022-12-20T22:31:36.802Z,21.67
2022-12-20T22:34:06.390Z,21.38
2022-12-20T22:36:35.113Z,20.75
2022-12-20T22:39:03.475Z,20.58
2022-12-20T22:41:35.024Z,21.90
2022-12-20T22:46:33.485Z,20.45
2022-12-20T22:49:03.750Z,21.42
2022-12-20T22:51:33.809Z,21.85
2022-12-20T22:54:02.524Z,22.17
2022-12-20T22:56:31.707Z,21.98
2022-12-20T22:59:00.326Z,22.77
2022-12-20T23:01:28.935Z,22.23
2022-12-20T23:03:57.512Z,21.73
2022-12-20T23:06:27.276Z,21.63
2022-12-20T23:08:55.756Z,21.38
2022-12-20T23:11:42.884Z,22.05
2022-12-20T23:14:31.148Z,21.95
2022-12-20T23:17:00.205Z,22.33
2022-12-20T23:19:28.881Z,22.08
2022-12-20T23:22:16.762Z,21.98
2022-12-20T23:24:45.651Z,20.75
2022-12-20T23:27:14.461Z,22.05
2022-12-20T23:29:42.836Z,22.02
2022-12-20T23:32:11.287Z,21.45
2022-12-20T23:34:39.926Z,21.73
2022-12-20T23:37:10.209Z,19.55
2022-12-20T23:39:39.573Z,21.02
2022-12-20T23:42:08.336Z,20.35
2022-12-20T23:44:36.881Z,21.40
2022-12-20T23:47:05.935Z,19.60
2022-12-20T23:49:34.694Z,21.17
2022-12-20T23:52:03.053Z,20.92
2022-12-20T23:54:32.928Z,19.75
2022-12-20T23:57:01.663Z,21.95
2022-12-20T23:59:31.147Z,21.75
